Seamaster — ZMV7638 — position and weather

sailwx.info

Track history (hours):
 
Tides and Currents Weather Stations Pressure Air Temp Water Temp Dewpoint Dewpoint Depression Visibility Wind Speed Wind Dir Waves Ship Positions

Seamaster

Last reported at 2015-Jul-31 20:26 UTC. Time now 2015-Jul-31 21:28 UTC.
Position S 36°52' E 174°54'.

Length 44 m.

Type: Passenger vessel. MMSI: 512001027.

Date/timePositionNaut miles runAvg speedWind from/ knotsBaromVisibWave heightAir tempDewpointWater temp
2015-Jul-31 20:26S 36°52' E 174°54'1 0.6
2015-Jul-31 18:18S 36°51' E 174°54'1 0.1
2015-Jul-31 05:24S 36°52' E 174°54'2 1.2
2015-Jul-31 03:31S 36°50' E 174°56'2 0.7
2015-Jul-31 00:11S 36°52' E 174°54'3 1.1
2015-Jul-30 21:27S 36°49' E 174°54'3 2.7
2015-Jul-30 20:25S 36°52' E 174°54'3 1.6
2015-Jul-30 18:30S 36°50' E 174°57'3 0.2
2015-Jul-30 05:27S 36°52' E 174°54'1 0.6
2015-Jul-30 03:15S 36°51' E 174°54'1 1.5
2015-Jul-30 02:27S 36°52' E 174°54'1 0.6
2015-Jul-30 00:15S 36°51' E 174°54'1 0.9
2015-Jul-29 23:26S 36°52' E 174°54'1 0.3
2015-Jul-29 21:20S 36°51' E 174°53'1 1.5
2015-Jul-29 20:28S 36°52' E 174°54'3 1.4
2015-Jul-29 18:33S 36°50' E 174°57'3 0.2
2015-Jul-29 05:25S 36°52' E 174°54'1 0.5
2015-Jul-29 03:16S 36°51' E 174°54'1 0.1
2015-Jul-28 20:28S 36°52' E 174°54'1 0.5
2015-Jul-28 18:19S 36°51' E 174°54'1 0.1
2015-Jul-28 05:27S 36°52' E 174°54'3 1.5
2015-Jul-28 03:32S 36°50' E 174°57'3 3.3
2015-Jul-28 02:32S 36°53' E 174°54'3 1.3
2015-Jul-28 00:31S 36°50' E 174°56'2 2.2
2015-Jul-27 23:29S 36°52' E 174°54'1 0.6
2015-Jul-27 21:25S 36°51' E 174°54'1 1.5
2015-Jul-27 20:31S 36°52' E 174°54'1 0.6
2015-Jul-27 18:23S 36°51' E 174°54'0 0.0
2015-Jul-27 05:14S 36°51' E 174°54'2 1.0
2015-Jul-27 03:27S 36°50' E 174°56'2 0.3
2015-Jul-26 21:24S 36°49' E 174°54'4 3.9
2015-Jul-26 20:28S 36°53' E 174°54'2 0.8
2015-Jul-26 18:18S 36°51' E 174°53'1 0.1
2015-Jul-26 05:24S 36°52' E 174°54'0 0.2
2015-Jul-26 02:28S 36°52' E 174°54'3 1.3
2015-Jul-26 00:32S 36°50' E 174°56'2 2.0
2015-Jul-25 23:23S 36°52' E 174°54'1 0.7
2015-Jul-25 21:16S 36°51' E 174°54'2 2.4
2015-Jul-25 20:30S 36°53' E 174°54'3 1.8
2015-Jul-25 18:33S 36°50' E 174°57'3 0.3
2015-Jul-25 05:26S 36°53' E 174°54'2 0.8
2015-Jul-25 03:14S 36°51' E 174°54'1 1.2
2015-Jul-25 02:22S 36°52' E 174°54'1 0.6
2015-Jul-25 00:25S 36°51' E 174°54'2 1.9
2015-Jul-24 23:27S 36°53' E 174°54'3 1.4
2015-Jul-24 21:33S 36°50' E 174°56'3 2.4
2015-Jul-24 20:29S 36°53' E 174°54'2 0.8
2015-Jul-24 18:17S 36°51' E 174°54'2 1.7
2015-Jul-24 17:09S 36°53' E 174°54'0 0.0
2015-Jul-24 16:33S 36°53' E 174°54'0 0.0
2015-Jul-24 05:28S 36°53' E 174°54'2 0.8
2015-Jul-24 03:15S 36°51' E 174°54'2 0.4
2015-Jul-23 23:31S 36°49' E 174°54'2 1.2
2015-Jul-23 21:31S 36°47' E 174°54'5 4.9
2015-Jul-23 20:30S 36°52' E 174°54'5 3.6
2015-Jul-23 19:04S 36°50' E 174°60'5 9.1
2015-Jul-23 18:31S 36°51' E 174°54'2 1.9
2015-Jul-23 17:27S 36°53' E 174°54'1 0.1
2015-Jul-23 05:27S 36°52' E 174°54'0 0.0
2015-Jul-23 02:27S 36°52' E 174°54'1 0.6
2015-Jul-23 00:22S 36°51' E 174°54'1 1.5
2015-Jul-22 23:29S 36°52' E 174°54'1 0.5
2015-Jul-22 21:14S 36°51' E 174°54'1 1.5
2015-Jul-22 20:26S 36°52' E 174°54'2 0.8
2015-Jul-22 18:20S 36°51' E 174°54'1 0.0
2015-Jul-22 05:34S 36°51' E 174°54'1 0.1
2015-Jul-22 00:22S 36°52' E 174°54'5 2.1
2015-Jul-21 22:07S 36°47' E 174°54'2 3.1
2015-Jul-21 21:33S 36°49' E 174°54'  
Track history (hours):
 
Tides and Currents Weather Stations Pressure Air Temp Water Temp Dewpoint Dewpoint Depression Visibility Wind Speed Wind Dir Waves Ship Positions

Seamaster

Last reported at 2015-Jul-31 20:26 UTC. Time now 2015-Jul-31 21:28 UTC.
Position S 36°52' E 174°54'.

Length 44 m.

Type: Passenger vessel. MMSI: 512001027.

Date/timePositionNaut miles runAvg speedWind from/ knotsBaromVisibWave heightAir tempDewpointWater temp
2015-Jul-31 20:26S 36°52' E 174°54'1 0.6
2015-Jul-31 18:18S 36°51' E 174°54'1 0.1
2015-Jul-31 05:24S 36°52' E 174°54'2 1.2
2015-Jul-31 03:31S 36°50' E 174°56'2 0.7
2015-Jul-31 00:11S 36°52' E 174°54'3 1.1
2015-Jul-30 21:27S 36°49' E 174°54'3 2.7
2015-Jul-30 20:25S 36°52' E 174°54'3 1.6
2015-Jul-30 18:30S 36°50' E 174°57'3 0.2
2015-Jul-30 05:27S 36°52' E 174°54'1 0.6
2015-Jul-30 03:15S 36°51' E 174°54'1 1.5
2015-Jul-30 02:27S 36°52' E 174°54'1 0.6
2015-Jul-30 00:15S 36°51' E 174°54'1 0.9
2015-Jul-29 23:26S 36°52' E 174°54'1 0.3
2015-Jul-29 21:20S 36°51' E 174°53'1 1.5
2015-Jul-29 20:28S 36°52' E 174°54'3 1.4
2015-Jul-29 18:33S 36°50' E 174°57'3 0.2
2015-Jul-29 05:25S 36°52' E 174°54'1 0.5
2015-Jul-29 03:16S 36°51' E 174°54'1 0.1
2015-Jul-28 20:28S 36°52' E 174°54'1 0.5
2015-Jul-28 18:19S 36°51' E 174°54'1 0.1
2015-Jul-28 05:27S 36°52' E 174°54'3 1.5
2015-Jul-28 03:32S 36°50' E 174°57'3 3.3
2015-Jul-28 02:32S 36°53' E 174°54'3 1.3
2015-Jul-28 00:31S 36°50' E 174°56'2 2.2
2015-Jul-27 23:29S 36°52' E 174°54'1 0.6
2015-Jul-27 21:25S 36°51' E 174°54'1 1.5
2015-Jul-27 20:31S 36°52' E 174°54'1 0.6
2015-Jul-27 18:23S 36°51' E 174°54'0 0.0
2015-Jul-27 05:14S 36°51' E 174°54'2 1.0
2015-Jul-27 03:27S 36°50' E 174°56'2 0.3
2015-Jul-26 21:24S 36°49' E 174°54'4 3.9
2015-Jul-26 20:28S 36°53' E 174°54'2 0.8
2015-Jul-26 18:18S 36°51' E 174°53'1 0.1
2015-Jul-26 05:24S 36°52' E 174°54'0 0.2
2015-Jul-26 02:28S 36°52' E 174°54'3 1.3
2015-Jul-26 00:32S 36°50' E 174°56'2 2.0
2015-Jul-25 23:23S 36°52' E 174°54'1 0.7
2015-Jul-25 21:16S 36°51' E 174°54'2 2.4
2015-Jul-25 20:30S 36°53' E 174°54'3 1.8
2015-Jul-25 18:33S 36°50' E 174°57'3 0.3
2015-Jul-25 05:26S 36°53' E 174°54'2 0.8
2015-Jul-25 03:14S 36°51' E 174°54'1 1.2
2015-Jul-25 02:22S 36°52' E 174°54'1 0.6
2015-Jul-25 00:25S 36°51' E 174°54'2 1.9
2015-Jul-24 23:27S 36°53' E 174°54'3 1.4
2015-Jul-24 21:33S 36°50' E 174°56'3 2.4
2015-Jul-24 20:29S 36°53' E 174°54'2 0.8
2015-Jul-24 18:17S 36°51' E 174°54'2 1.7
2015-Jul-24 17:09S 36°53' E 174°54'0 0.0
2015-Jul-24 16:33S 36°53' E 174°54'0 0.0
2015-Jul-24 05:28S 36°53' E 174°54'2 0.8
2015-Jul-24 03:15S 36°51' E 174°54'2 0.4
2015-Jul-23 23:31S 36°49' E 174°54'2 1.2
2015-Jul-23 21:31S 36°47' E 174°54'5 4.9
2015-Jul-23 20:30S 36°52' E 174°54'5 3.6
2015-Jul-23 19:04S 36°50' E 174°60'5 9.1
2015-Jul-23 18:31S 36°51' E 174°54'2 1.9
2015-Jul-23 17:27S 36°53' E 174°54'1 0.1
2015-Jul-23 05:27S 36°52' E 174°54'0 0.0
2015-Jul-23 02:27S 36°52' E 174°54'1 0.6
2015-Jul-23 00:22S 36°51' E 174°54'1 1.5
2015-Jul-22 23:29S 36°52' E 174°54'1 0.5
2015-Jul-22 21:14S 36°51' E 174°54'1 1.5
2015-Jul-22 20:26S 36°52' E 174°54'2 0.8
2015-Jul-22 18:20S 36°51' E 174°54'1 0.0
2015-Jul-22 05:34S 36°51' E 174°54'1 0.1
2015-Jul-22 00:22S 36°52' E 174°54'5 2.1
2015-Jul-21 22:07S 36°47' E 174°54'2 3.1
2015-Jul-21 21:33S 36°49' E 174°54'  

Dump ship's entire track history